Time;durP1;ratioP1;P1;durP2;ratioP2;P2;SDS_P1;SDS_P2;PMS_P1;PMS_P2;Temp;Humidity;BMP_temperature;BMP_pressure;BME280_temperature;BME280_humidity;BME280_pressure;Samples;Min_cycle;Max_cycle;Signal;HPM_P1;HPM_P2
2021/12/18 00:02:19;;;;;;;20.75;7.20;;;;;;;3.15;88.38;102204.02;1636359;87;27517;-80
2021/12/18 00:04:45;;;;;;;19.35;6.42;;;;;;;3.14;88.26;102215.56;1636512;87;25884;-80
2021/12/18 00:07:12;;;;;;;15.43;6.90;;;;;;;3.10;88.11;102224.66;1636343;86;25732;-79
2021/12/18 00:09:39;;;;;;;17.90;6.10;;;;;;;3.06;88.17;102219.16;1636136;87;26519;-78
2021/12/18 00:12:07;;;;;;;15.68;6.35;;;;;;;2.97;87.94;102202.58;1636538;86;26518;-80
2021/12/18 00:14:34;;;;;;;19.25;6.65;;;;;;;2.92;88.33;102202.02;1636229;87;28315;-79
2021/12/18 00:17:02;;;;;;;16.35;6.92;;;;;;;2.89;88.51;102203.05;1635640;87;25826;-78
2021/12/18 00:19:28;;;;;;;15.43;6.53;;;;;;;2.86;88.46;102195.80;1636871;87;26535;-79
2021/12/18 00:21:55;;;;;;;19.57;7.12;;;;;;;2.81;88.53;102189.94;1635119;87;25848;-79
2021/12/18 00:24:22;;;;;;;21.85;7.08;;;;;;;2.79;88.64;102189.19;1636758;87;26490;-79
2021/12/18 00:26:48;;;;;;;20.68;6.47;;;;;;;2.80;88.77;102193.05;1635398;87;28341;-78
2021/12/18 00:29:15;;;;;;;20.10;6.75;;;;;;;2.79;88.73;102187.86;1635049;87;25308;-78
2021/12/18 00:31:41;;;;;;;15.55;6.90;;;;;;;2.76;88.66;102199.48;1635871;87;26130;-80
2021/12/18 00:34:07;;;;;;;20.50;7.62;;;;;;;2.78;88.78;102209.50;1636428;87;25844;-80
2021/12/18 00:36:33;;;;;;;16.85;6.58;;;;;;;2.76;88.46;102208.75;1636300;86;25986;-79
2021/12/18 00:39:00;;;;;;;17.55;7.12;;;;;;;2.74;88.54;102212.44;1635753;87;27574;-79
2021/12/18 00:44:02;;;;;;;17.25;6.78;;;;;;;2.73;88.50;102216.91;1636406;87;26124;-78
2021/12/18 00:46:37;;;;;;;18.07;7.13;;;;;;;2.72;88.47;102224.91;1633141;87;25866;-80
2021/12/18 00:49:06;;;;;;;15.50;6.33;;;;;;;2.69;88.42;102235.70;1636407;87;25787;-80
2021/12/18 00:51:34;;;;;;;20.97;7.45;;;;;;;2.67;88.22;102231.84;1635754;87;27463;-79
2021/12/18 00:54:01;;;;;;;18.23;6.75;;;;;;;2.60;88.09;102226.55;1636471;87;25838;-78
2021/12/18 00:56:27;;;;;;;13.38;6.08;;;;;;;2.56;88.09;102235.62;1636379;87;25781;-78
2021/12/18 00:58:54;;;;;;;18.27;5.78;;;;;;;2.56;88.02;102241.39;1635874;87;25786;-78
2021/12/18 01:01:22;;;;;;;15.58;5.78;;;;;;;2.51;87.88;102233.73;1636023;87;26176;-79
2021/12/18 01:03:51;;;;;;;13.48;5.95;;;;;;;2.48;87.74;102229.12;1636312;87;27461;-78
2021/12/18 01:06:19;;;;;;;18.48;6.78;;;;;;;2.38;87.69;102226.17;1636329;87;25773;-79
2021/12/18 01:08:50;;;;;;;15.35;6.40;;;;;;;2.30;87.86;102225.34;1637146;87;25564;-78
2021/12/18 01:16:35;;;;;;;17.92;6.10;;;;;;;2.07;88.14;102218.44;1635965;87;27569;-79
2021/12/18 01:24:23;;;;;;;17.75;5.92;;;;;;;1.89;89.04;102224.81;1635042;87;25816;-79
2021/12/18 01:26:49;;;;;;;15.60;6.03;;;;;;;1.83;89.17;102229.14;1635943;87;25748;-79
2021/12/18 01:29:15;;;;;;;12.20;5.47;;;;;;;1.79;89.49;102213.10;1637117;87;27478;-78
2021/12/18 01:31:41;;;;;;;19.77;5.80;;;;;;;1.77;89.63;102201.78;1636199;86;26667;-78
2021/12/18 01:34:08;;;;;;;12.82;6.28;;;;;;;1.74;89.85;102205.91;1636819;87;25738;-80
2021/12/18 01:36:34;;;;;;;19.70;6.50;;;;;;;1.72;90.11;102209.97;1636173;87;25794;-79
2021/12/18 01:39:02;;;;;;;12.85;4.75;;;;;;;1.74;90.23;102215.16;1637077;86;26525;-80
2021/12/18 01:41:36;;;;;;;17.25;5.25;;;;;;;1.74;90.49;102225.25;1635897;87;29341;-79
2021/12/18 01:47:00;;;;;;;14.65;5.92;;;;;;;1.78;90.62;102245.27;1633998;87;25852;-79
2021/12/18 01:54:33;;;;;;;12.40;5.95;;;;;;;1.87;90.64;102235.48;1609868;87;27502;-79
2021/12/18 01:57:00;;;;;;;14.98;6.00;;;;;;;1.93;90.58;102242.18;1636921;87;26279;-80
2021/12/18 01:59:41;;;;;;;8.70;4.67;;;;;;;1.96;90.56;102238.91;1610170;87;25943;-79
2021/12/18 02:02:08;;;;;;;16.55;6.95;;;;;;;2.02;90.76;102231.06;1635325;87;25805;-78
2021/12/18 02:04:34;;;;;;;12.80;5.60;;;;;;;2.04;90.95;102234.00;1629714;87;25344;-79
2021/12/18 02:07:02;;;;;;;17.42;5.92;;;;;;;2.07;91.11;102236.94;1635508;87;27486;-78
2021/12/18 02:09:45;;;;;;;12.82;4.83;;;;;;;2.10;91.23;102234.09;1636548;87;26525;-78
2021/12/18 02:11:59;;;;;;;14.18;5.65;;;;;;;2.15;91.33;102242.60;1629434;87;25997;-78
2021/12/18 02:20:22;;;;;;;17.57;5.80;;;;;;;2.20;91.45;102238.72;1632078;87;28428;-79
2021/12/18 02:22:36;;;;;;;15.65;5.65;;;;;;;2.20;91.55;102236.58;1626873;85;25853;-79
2021/12/18 02:25:03;;;;;;;15.72;5.40;;;;;;;2.22;91.71;102238.66;1635753;87;25759;-79
2021/12/18 02:27:30;;;;;;;13.62;5.58;;;;;;;2.25;91.78;102231.38;1636200;85;25834;-79
2021/12/18 02:29:58;;;;;;;19.10;5.60;;;;;;;2.26;91.81;102234.41;1635849;87;26485;-79
2021/12/18 02:32:24;;;;;;;14.30;5.28;;;;;;;2.27;91.83;102227.30;1634891;87;27543;-79
2021/12/18 02:34:56;;;;;;;15.83;5.90;;;;;;;2.27;91.97;102235.23;1636565;86;25917;-79
2021/12/18 02:37:24;;;;;;;16.75;6.00;;;;;;;2.28;92.07;102238.27;1635807;87;26541;-79
2021/12/18 02:42:32;;;;;;;15.00;5.70;;;;;;;2.34;92.24;102235.25;1636134;87;26037;-79
2021/12/18 02:44:56;;;;;;;16.80;6.75;;;;;;;2.34;92.27;102232.60;1635885;87;28447;-78
2021/12/18 02:47:22;;;;;;;14.47;5.55;;;;;;;2.36;92.37;102226.74;1636034;87;25810;-79
2021/12/18 02:49:52;;;;;;;16.27;6.10;;;;;;;2.39;92.39;102222.60;1636618;87;25815;-78
2021/12/18 02:52:20;;;;;;;13.28;5.80;;;;;;;2.43;92.45;102220.61;1636631;87;26571;-79
2021/12/18 02:54:48;;;;;;;19.10;6.30;;;;;;;2.45;92.39;102221.36;1636395;87;25820;-80
2021/12/18 02:57:14;;;;;;;14.55;5.15;;;;;;;2.47;92.44;102223.44;1636462;87;27442;-78
2021/12/18 02:59:47;;;;;;;12.45;4.90;;;;;;;2.49;92.62;102227.69;1636935;87;25796;-78
2021/12/18 03:02:16;;;;;;;12.43;5.47;;;;;;;2.49;92.59;102235.62;1635837;86;25878;-79
2021/12/18 03:04:46;;;;;;;15.18;5.42;;;;;;;2.50;92.54;102239.13;1636262;87;25860;-80
2021/12/18 03:07:13;;;;;;;14.98;5.62;;;;;;;2.50;92.63;102236.02;1636762;85;25782;-79
2021/12/18 03:19:04;;;;;;;15.05;6.40;;;;;;;2.54;92.67;102231.38;1636141;87;27652;-79
2021/12/18 03:21:43;;;;;;;14.95;6.10;;;;;;;2.61;92.69;102219.47;1627381;87;25744;-80
2021/12/18 03:26:04;;;;;;;18.57;5.70;;;;;;;2.65;92.55;102204.61;1576073;89;26172;-78
2021/12/18 03:28:31;;;;;;;16.60;5.40;;;;;;;2.68;92.58;102199.59;1623325;86;26091;-79
2021/12/18 03:30:58;;;;;;;12.90;5.95;;;;;;;2.69;92.52;102201.31;1608256;87;26592;-78
2021/12/18 03:33:27;;;;;;;18.98;6.95;;;;;;;2.69;92.44;102214.08;1637349;86;26088;-78
2021/12/18 03:35:53;;;;;;;19.20;6.45;;;;;;;2.69;92.44;102209.25;1636306;87;26943;-79
2021/12/18 03:38:20;;;;;;;13.90;5.97;;;;;;;2.70;92.45;102217.55;1636065;87;26620;-79
2021/12/18 03:40:46;;;;;;;15.60;8.05;;;;;;;2.68;92.41;102210.19;1636285;87;25856;-79
2021/12/18 03:43:12;;;;;;;17.40;6.80;;;;;;;2.68;92.45;102219.44;1635964;86;25835;-80
2021/12/18 03:45:39;;;;;;;14.15;6.53;;;;;;;2.68;92.46;102212.36;1636084;87;25949;-80
2021/12/18 03:48:05;;;;;;;17.27;7.22;;;;;;;2.67;92.47;102218.62;1636448;87;27458;-80
2021/12/18 03:50:31;;;;;;;20.25;7.17;;;;;;;2.68;92.52;102211.04;1636574;86;25817;-78
2021/12/18 03:52:58;;;;;;;15.85;6.47;;;;;;;2.70;92.55;102217.55;1636546;87;25776;-81
2021/12/18 03:55:26;;;;;;;14.73;6.28;;;;;;;2.71;92.52;102217.47;1636690;86;26548;-79
2021/12/18 03:57:53;;;;;;;15.80;6.85;;;;;;;2.71;92.48;102217.47;1635615;87;25794;-82
2021/12/18 04:00:19;;;;;;;20.32;6.78;;;;;;;2.71;92.53;102218.80;1636661;87;27532;-78
2021/12/18 04:02:46;;;;;;;17.45;5.45;;;;;;;2.71;92.52;102216.15;1636222;87;25882;-79
2021/12/18 04:05:13;;;;;;;12.43;6.08;;;;;;;2.73;92.57;102215.58;1636759;87;25729;-79
2021/12/18 04:07:42;;;;;;;15.60;5.72;;;;;;;2.75;92.55;102208.39;1636127;87;25934;-79
2021/12/18 04:10:14;;;;;;;12.73;6.08;;;;;;;2.77;92.48;102206.49;1636796;85;25816;-79
2021/12/18 04:12:40;;;;;;;13.72;5.95;;;;;;;2.78;92.51;102203.38;1636530;87;28071;-80
2021/12/18 04:15:07;;;;;;;18.02;5.95;;;;;;;2.79;92.45;102215.65;1635998;87;26516;-79
2021/12/18 04:17:34;;;;;;;15.53;5.20;;;;;;;2.80;92.52;102212.07;1635955;87;25864;-80
2021/12/18 04:20:00;;;;;;;16.07;5.28;;;;;;;2.85;92.53;102202.02;1636083;87;26613;-79
2021/12/18 04:22:26;;;;;;;16.42;5.53;;;;;;;2.87;92.48;102211.56;1636216;87;25913;-79
2021/12/18 04:24:53;;;;;;;11.03;5.92;;;;;;;2.88;92.34;102214.61;1636598;87;27566;-79
2021/12/18 04:27:19;;;;;;;18.23;6.12;;;;;;;2.87;92.22;102212.89;1637104;87;26229;-78
2021/12/18 04:29:45;;;;;;;11.43;5.60;;;;;;;2.87;92.28;102218.18;1632472;87;26498;-79
2021/12/18 04:32:11;;;;;;;9.73;5.20;;;;;;;2.89;92.33;102222.05;1636701;87;25868;-79
2021/12/18 04:34:37;;;;;;;17.57;5.65;;;;;;;2.89;92.29;102218.93;1636234;87;26041;-78
2021/12/18 04:37:04;;;;;;;17.80;5.62;;;;;;;2.92;92.33;102214.78;1637269;87;27444;-79
2021/12/18 04:39:30;;;;;;;15.63;5.37;;;;;;;2.95;92.29;102207.13;1636590;86;25357;-79
2021/12/18 04:41:58;;;;;;;10.38;5.62;;;;;;;2.96;92.27;102206.16;1636320;86;25957;-78
2021/12/18 04:44:25;;;;;;;13.83;4.87;;;;;;;2.98;92.18;102208.23;1636700;87;25968;-80
2021/12/18 04:46:53;;;;;;;13.10;5.10;;;;;;;2.98;92.13;102218.35;1636500;86;25931;-79
2021/12/18 04:49:19;;;;;;;9.65;5.78;;;;;;;2.98;92.09;102213.05;1637020;86;28281;-80
2021/12/18 04:51:45;;;;;;;14.93;5.12;;;;;;;2.98;92.11;102206.44;1635382;87;25607;-79
2021/12/18 04:54:12;;;;;;;15.40;5.30;;;;;;;3.01;92.13;102205.40;1641343;86;26525;-79
2021/12/18 04:56:38;;;;;;;15.80;6.65;;;;;;;3.01;92.10;102199.64;1636655;87;25782;-80
2021/12/18 04:59:05;;;;;;;16.27;7.30;;;;;;;3.00;92.05;102201.89;1636306;87;25920;-79
2021/12/18 05:01:37;;;;;;;11.20;5.65;;;;;;;3.02;92.12;102200.45;1636542;85;28361;-79
2021/12/18 05:04:05;;;;;;;;;;;;;;;3.04;92.16;102194.12;1655396;85;25939;-78
2021/12/18 05:06:33;;;;;;;17.17;6.05;;;;;;;3.05;92.07;102200.27;1648032;85;25854;-79
2021/12/18 05:08:59;;;;;;;16.48;6.62;;;;;;;3.04;92.23;102206.50;1645551;85;25957;-79
2021/12/18 05:11:25;;;;;;;16.48;6.20;;;;;;;3.03;92.04;102197.73;1617142;86;26607;-79
2021/12/18 05:13:52;;;;;;;17.15;5.83;;;;;;;3.03;91.99;102195.09;1677623;85;27515;-80
2021/12/18 05:16:18;;;;;;;16.17;6.03;;;;;;;3.04;91.97;102194.12;1679536;85;26479;-78
2021/12/18 05:18:44;;;;;;;13.48;6.12;;;;;;;3.06;91.96;102195.34;1680142;85;25866;-80
2021/12/18 05:21:11;;;;;;;13.62;6.35;;;;;;;3.06;91.93;102194.02;1679451;83;26543;-80
2021/12/18 05:23:37;;;;;;;16.42;6.00;;;;;;;3.08;91.91;102202.70;1648164;85;25778;-79
2021/12/18 05:26:03;;;;;;;12.47;5.33;;;;;;;3.08;91.88;102194.30;1652067;85;27432;-79
2021/12/18 05:28:30;;;;;;;15.68;5.97;;;;;;;3.08;91.79;102196.94;1652439;85;26606;-78
2021/12/18 05:30:56;;;;;;;12.95;5.10;;;;;;;3.06;91.75;102186.93;1616247;87;25847;-78
2021/12/18 05:33:22;;;;;;;13.10;6.60;;;;;;;3.08;91.83;102183.70;1644648;86;25930;-78
2021/12/18 05:35:48;;;;;;;12.65;5.05;;;;;;;3.10;91.81;102174.36;1636787;85;25863;-79
2021/12/18 05:38:15;;;;;;;10.50;4.55;;;;;;;3.08;91.56;102186.35;1635419;87;28555;-79
2021/12/18 05:40:41;;;;;;;11.63;4.80;;;;;;;3.06;91.67;102188.72;1636502;85;25925;-80
2021/12/18 05:43:09;;;;;;;11.80;4.85;;;;;;;3.06;91.68;102188.72;1653137;85;26112;-79
2021/12/18 05:45:37;;;;;;;8.85;4.53;;;;;;;3.05;91.72;102193.19;1653113;85;26610;-78
2021/12/18 05:48:04;;;;;;;12.07;5.30;;;;;;;3.04;91.72;102195.45;1652170;85;25327;-79
2021/12/18 05:50:31;;;;;;;16.23;5.42;;;;;;;3.03;91.68;102193.77;1654099;84;27514;-78
2021/12/18 05:52:59;;;;;;;16.23;5.12;;;;;;;3.02;91.75;102200.00;1616495;87;25852;-79
2021/12/18 05:55:28;;;;;;;13.40;4.70;;;;;;;3.02;91.82;102203.97;1644953;85;25990;-79
2021/12/18 05:57:54;;;;;;;11.95;4.72;;;;;;;3.05;91.72;102214.84;1636086;85;26642;-79
2021/12/18 06:00:21;;;;;;;13.48;4.28;;;;;;;3.03;91.77;102201.70;1636552;87;25961;-79
2021/12/18 06:02:48;;;;;;;14.23;4.92;;;;;;;3.03;91.63;102199.53;1636055;85;28281;-79
2021/12/18 06:05:14;;;;;;;15.38;4.90;;;;;;;3.01;91.64;102198.78;1644066;85;25763;-79
2021/12/18 06:10:10;;;;;;;13.60;6.62;;;;;;;3.03;91.70;102199.53;1658719;85;26220;-79
2021/12/18 06:12:36;;;;;;;13.00;5.92;;;;;;;3.06;91.81;102196.66;1636199;87;25924;-79
2021/12/18 06:15:02;;;;;;;15.75;6.47;;;;;;;3.06;91.74;102192.69;1636296;86;27458;-78
2021/12/18 06:17:29;;;;;;;10.48;6.53;;;;;;;3.06;91.67;102200.63;1636864;86;25944;-79
2021/12/18 06:19:55;;;;;;;11.63;5.28;;;;;;;3.06;91.69;102199.31;1635933;87;26425;-78
2021/12/18 06:22:21;;;;;;;15.20;6.90;;;;;;;3.08;91.72;102188.14;1636633;86;26297;-79
2021/12/18 06:24:47;;;;;;;17.55;7.58;;;;;;;3.08;91.71;102190.33;1636495;87;25800;-79
2021/12/18 06:27:14;;;;;;;13.78;7.17;;;;;;;3.09;91.73;102192.03;1636065;86;28149;-79
2021/12/18 06:29:42;;;;;;;17.82;8.35;;;;;;;3.07;91.54;102183.34;1636300;86;25862;-83
2021/12/18 06:32:10;;;;;;;20.23;8.77;;;;;;;3.07;91.52;102190.44;1636497;87;26512;-79
2021/12/18 06:34:36;;;;;;;20.85;10.53;;;;;;;3.03;91.53;102184.50;1644514;85;26638;-78
2021/12/18 06:37:03;;;;;;;20.65;10.50;;;;;;;3.03;91.61;102184.97;1635482;86;25766;-80
2021/12/18 06:39:29;;;;;;;28.95;14.83;;;;;;;3.00;91.59;102182.51;1686638;84;26939;-79
2021/12/18 06:41:55;;;;;;;21.73;11.60;;;;;;;2.98;91.57;102172.03;1676562;85;25828;-80
2021/12/18 06:44:21;;;;;;;48.73;23.45;;;;;;;2.97;91.69;102173.46;1678537;84;26157;-78
2021/12/18 06:46:48;;;;;;;23.35;13.03;;;;;;;2.97;91.77;102172.96;1678018;85;25843;-79
2021/12/18 06:49:14;;;;;;;22.62;11.45;;;;;;;2.92;91.74;102171.11;1676075;85;25825;-78
2021/12/18 06:51:40;;;;;;;16.62;9.13;;;;;;;2.90;91.87;102177.44;1683106;83;28179;-79
2021/12/18 06:54:06;;;;;;;21.48;10.03;;;;;;;2.87;92.03;102182.92;1679706;85;25814;-79
2021/12/18 06:56:32;;;;;;;19.75;9.08;;;;;;;2.87;92.11;102183.78;1677703;85;25807;-77
2021/12/18 06:58:59;;;;;;;14.13;8.40;;;;;;;2.88;92.18;102181.52;1677626;85;26534;-79
2021/12/18 07:01:25;;;;;;;22.82;11.93;;;;;;;2.85;92.22;102178.20;1677704;85;25829;-80
2021/12/18 07:03:51;;;;;;;23.70;9.55;;;;;;;2.81;92.28;102168.30;1679431;85;28296;-79
2021/12/18 07:06:17;;;;;;;22.42;11.75;;;;;;;2.81;92.48;102176.70;1676513;84;25869;-79
2021/12/18 07:08:44;;;;;;;20.23;11.50;;;;;;;2.80;92.46;102178.50;1676648;83;25818;-79
2021/12/18 07:11:10;;;;;;;23.92;12.50;;;;;;;2.81;92.60;102178.89;1678146;85;26551;-81
2021/12/18 07:13:37;;;;;;;31.50;16.25;;;;;;;2.79;92.71;102162.73;1679233;84;25766;-79
2021/12/18 07:16:04;;;;;;;31.60;15.05;;;;;;;2.78;92.80;102159.22;1681097;85;27517;-78
2021/12/18 07:18:31;;;;;;;32.40;16.70;;;;;;;2.80;92.89;102151.21;1680131;85;26037;-78
2021/12/18 07:20:59;;;;;;;29.72;13.15;;;;;;;2.80;93.01;102151.21;1663878;85;25892;-78
2021/12/18 07:23:25;;;;;;;37.25;15.43;;;;;;;2.78;93.15;102145.17;1675276;85;26048;-79
2021/12/18 07:25:52;;;;;;;35.33;16.27;;;;;;;2.77;93.20;102146.96;1677125;85;25839;-79
2021/12/18 07:28:18;;;;;;;36.70;16.27;;;;;;;2.76;93.47;102144.42;1679719;85;28238;-79
2021/12/18 07:30:44;;;;;;;39.30;18.37;;;;;;;2.76;93.49;102139.95;1680865;85;25892;-79
2021/12/18 07:33:11;;;;;;;35.78;18.27;;;;;;;2.75;93.57;102136.95;1675601;85;25770;-79
2021/12/18 07:35:38;;;;;;;47.83;17.90;;;;;;;2.77;93.66;102141.67;1681091;85;26577;-79
2021/12/18 07:38:05;;;;;;;48.33;19.95;;;;;;;2.76;93.72;102147.89;1681022;85;26121;-79
2021/12/18 07:40:32;;;;;;;45.48;18.80;;;;;;;2.76;93.79;102150.54;1681207;85;27004;-79
2021/12/18 07:42:58;;;;;;;50.58;18.60;;;;;;;2.77;93.85;102149.61;1671305;84;25841;-79
2021/12/18 07:45:25;;;;;;;42.38;18.70;;;;;;;2.78;93.93;102153.94;1678656;85;25812;-79
2021/12/18 07:47:51;;;;;;;51.65;20.77;;;;;;;2.78;94.01;102156.58;1680951;85;26609;-80
2021/12/18 07:50:19;;;;;;;44.53;18.82;;;;;;;2.76;94.07;102151.03;1679492;85;26532;-78
2021/12/18 07:52:48;;;;;;;50.78;21.27;;;;;;;2.77;94.14;102154.90;1679671;85;28341;-79
2021/12/18 07:55:15;;;;;;;51.18;21.37;;;;;;;2.77;94.17;102145.64;1676119;85;25929;-78
2021/12/18 07:57:42;;;;;;;45.08;19.82;;;;;;;2.78;94.26;102151.78;1676926;83;25803;-78
2021/12/18 08:00:14;;;;;;;51.58;21.85;;;;;;;2.78;94.29;102149.14;1676655;85;26681;-79
2021/12/18 08:02:41;;;;;;;50.45;20.27;;;;;;;2.74;94.29;102152.44;1676610;85;25868;-79
2021/12/18 08:05:08;;;;;;;55.95;24.47;;;;;;;2.75;94.23;102173.14;1680106;85;26903;-79
2021/12/18 08:07:38;;;;;;;45.92;20.82;;;;;;;2.74;94.07;102186.83;1677331;85;25290;-78
2021/12/18 08:10:05;;;;;;;48.17;20.60;;;;;;;2.75;94.04;102185.05;1678426;83;26606;-80
2021/12/18 08:12:32;;;;;;;42.95;19.40;;;;;;;2.75;93.96;102191.66;1675493;83;25934;-81
2021/12/18 08:14:58;;;;;;;46.85;21.07;;;;;;;2.74;93.90;102188.16;1671496;83;25957;-79
2021/12/18 08:17:26;;;;;;;40.90;19.70;;;;;;;2.75;93.94;102186.37;1673951;85;28221;-81
2021/12/18 08:19:52;;;;;;;36.13;17.65;;;;;;;2.76;93.91;102189.41;1674829;84;25854;-80
2021/12/18 08:22:19;;;;;;;33.98;18.00;;;;;;;2.75;93.66;102183.72;1676722;83;26173;-78
2021/12/18 08:24:46;;;;;;;39.50;22.37;;;;;;;2.73;93.66;102178.53;1674776;85;26547;-79
2021/12/18 08:27:12;;;;;;;42.70;20.02;;;;;;;2.71;93.57;102178.25;1675677;83;25345;-79
2021/12/18 08:29:39;;;;;;;41.45;19.65;;;;;;;2.72;93.74;102175.97;1646558;85;27546;-80
2021/12/18 08:32:06;;;;;;;35.43;18.37;;;;;;;2.71;93.63;102176.47;1650984;85;25836;-79
2021/12/18 08:34:32;;;;;;;38.25;19.05;;;;;;;2.72;93.71;102172.86;1649869;85;25867;-80
2021/12/18 08:36:59;;;;;;;38.30;18.20;;;;;;;2.71;93.58;102175.14;1658740;85;26673;-79
2021/12/18 08:39:28;;;;;;;37.60;18.07;;;;;;;2.70;93.66;102172.57;1658188;85;25888;-80
2021/12/18 08:41:58;;;;;;;36.25;16.55;;;;;;;2.68;93.72;102172.67;1635620;85;29865;-79
2021/12/18 08:44:25;;;;;;;41.63;20.05;;;;;;;2.67;93.75;102172.31;1651747;85;25988;-80
2021/12/18 08:46:51;;;;;;;45.38;19.30;;;;;;;2.67;93.78;102162.20;1635683;85;25386;-80
2021/12/18 08:49:18;;;;;;;32.48;18.70;;;;;;;2.67;93.81;102147.19;1634890;85;25981;-79
2021/12/18 08:51:44;;;;;;;35.83;18.20;;;;;;;2.69;93.89;102141.32;1636435;87;25925;-80
2021/12/18 08:54:10;;;;;;;38.25;18.25;;;;;;;2.69;93.84;102141.32;1636014;87;27482;-80
2021/12/18 08:56:37;;;;;;;34.53;16.95;;;;;;;2.69;93.97;102119.30;1639411;85;26242;-79
2021/12/18 08:59:04;;;;;;;32.80;16.17;;;;;;;2.72;94.01;102129.66;1635360;85;25844;-78
2021/12/18 09:01:31;;;;;;;30.55;16.17;;;;;;;2.73;94.08;102123.44;1638437;85;26092;-78
2021/12/18 09:03:57;;;;;;;40.63;18.23;;;;;;;2.75;94.17;102114.46;1636749;86;25804;-79
2021/12/18 09:06:23;;;;;;;36.03;16.32;;;;;;;2.77;94.18;102109.06;1636359;85;27522;-80
2021/12/18 09:08:51;;;;;;;37.65;19.23;;;;;;;2.80;94.35;102096.97;1653007;85;26163;-80
2021/12/18 09:11:18;;;;;;;32.00;16.67;;;;;;;2.80;94.28;102105.73;1658526;85;26819;-80
2021/12/18 09:13:44;;;;;;;39.45;19.92;;;;;;;2.82;94.50;102104.33;1653659;85;26056;-79
2021/12/18 09:16:11;;;;;;;48.05;24.00;;;;;;;2.79;94.46;102082.88;1625490;87;25939;-80
2021/12/18 09:18:37;;;;;;;52.55;25.72;;;;;;;2.76;94.53;102077.78;1649799;86;27443;-79
2021/12/18 09:21:04;;;;;;;51.28;22.67;;;;;;;2.80;94.80;102087.70;1626075;87;25992;-79
2021/12/18 09:23:31;;;;;;;53.38;25.55;;;;;;;2.78;94.98;102077.20;1603234;89;25780;-79
2021/12/18 09:25:58;;;;;;;44.55;21.90;;;;;;;2.77;94.89;102075.52;1655732;85;26551;-79
2021/12/18 09:28:24;;;;;;;59.15;24.67;;;;;;;2.79;95.25;102070.12;1643976;85;25758;-80
2021/12/18 09:30:51;;;;;;;44.77;21.25;;;;;;;2.80;95.08;102071.83;1650699;85;28236;-79
2021/12/18 09:33:18;;;;;;;55.52;25.50;;;;;;;2.80;95.28;102072.66;1658557;85;25934;-80
2021/12/18 09:35:45;;;;;;;56.80;24.45;;;;;;;2.81;95.15;102078.80;1636495;87;26310;-80
2021/12/18 09:38:12;;;;;;;64.30;28.60;;;;;;;2.81;95.26;102077.48;1636517;87;25865;-79
2021/12/18 09:40:39;;;;;;;60.60;23.55;;;;;;;2.78;95.16;102067.94;1636558;87;26621;-78
2021/12/18 09:43:06;;;;;;;68.87;29.50;;;;;;;2.80;95.45;102068.69;1636628;86;27481;-79
2021/12/18 09:45:33;;;;;;;76.20;33.00;;;;;;;2.80;95.41;102057.28;1633305;87;25684;-79
2021/12/18 09:47:59;;;;;;;71.47;34.15;;;;;;;2.78;95.38;102047.27;1637206;87;25903;-79
2021/12/18 09:50:28;;;;;;;53.55;26.62;;;;;;;2.76;95.42;102047.85;1636207;87;26529;-79
2021/12/18 09:52:55;;;;;;;37.28;18.05;;;;;;;2.78;95.50;102039.33;1636499;87;26598;-80
2021/12/18 09:55:21;;;;;;;43.83;22.58;;;;;;;2.78;95.62;102032.72;1637035;87;27566;-80
2021/12/18 09:57:49;;;;;;;51.08;22.60;;;;;;;2.77;95.50;102035.83;1637628;87;26516;-79
2021/12/18 10:00:21;;;;;;;42.50;22.50;;;;;;;2.74;95.50;102037.34;1633184;87;25767;-79
2021/12/18 10:02:47;;;;;;;46.00;24.65;;;;;;;2.75;95.56;102035.55;1637044;87;26549;-79
2021/12/18 10:05:32;;;;;;;39.65;22.00;;;;;;;2.73;95.67;102038.31;1636242;86;26603;-79
2021/12/18 10:08:18;;;;;;;43.30;22.42;;;;;;;2.74;95.58;102025.44;1636567;87;27464;-80
2021/12/18 10:11:09;;;;;;;43.52;22.65;;;;;;;2.76;95.68;102024.03;1636255;86;25885;-79
2021/12/18 10:14:04;;;;;;;41.05;21.55;;;;;;;2.78;95.60;102029.57;1632953;87;25840;-79
2021/12/18 10:16:31;;;;;;;40.43;20.52;;;;;;;2.79;95.60;102022.49;1631893;87;26240;-79
2021/12/18 10:18:59;;;;;;;41.10;21.02;;;;;;;2.80;95.62;102022.38;1637130;87;25899;-79
2021/12/18 10:21:29;;;;;;;43.02;21.95;;;;;;;2.80;95.79;102018.41;1636273;87;27578;-80
2021/12/18 10:23:57;;;;;;;35.13;19.57;;;;;;;2.79;95.55;102016.73;1636718;87;25939;-79
2021/12/18 10:26:42;;;;;;;36.77;22.20;;;;;;;2.78;95.68;102009.73;1637057;87;25350;-79
2021/12/18 10:29:36;;;;;;;51.55;21.62;;;;;;;2.79;95.66;102004.83;1636234;86;26576;-78
2021/12/18 10:32:09;;;;;;;34.27;20.25;;;;;;;2.80;95.74;102005.18;1631692;87;25833;-79
2021/12/18 10:34:37;;;;;;;42.45;22.05;;;;;;;2.78;95.57;102000.47;1636375;87;27567;-78
2021/12/18 10:37:15;;;;;;;33.73;18.35;;;;;;;2.79;95.59;101992.06;1637945;85;25977;-78
2021/12/18 10:39:58;;;;;;;31.55;18.05;;;;;;;2.78;95.64;101983.77;1638856;85;25833;-79
2021/12/18 10:42:42;;;;;;;38.05;21.52;;;;;;;2.76;95.60;101967.16;1640825;85;26048;-79
2021/12/18 10:45:22;;;;;;;35.60;18.40;;;;;;;2.78;95.79;101965.25;1640633;85;26119;-79
2021/12/18 10:48:05;;;;;;;37.83;21.07;;;;;;;2.81;95.87;101948.68;1658756;85;28766;-79
2021/12/18 10:50:51;;;;;;;37.88;19.30;;;;;;;2.79;95.70;101955.02;1688257;84;25897;-79
2021/12/18 10:53:29;;;;;;;46.35;26.97;;;;;;;2.78;95.78;101941.44;1685160;84;25874;-79
2021/12/18 10:55:58;;;;;;;45.23;23.90;;;;;;;2.78;95.93;101933.50;1684986;84;25827;-79
2021/12/18 10:58:37;;;;;;;64.87;34.30;;;;;;;2.79;96.00;101937.83;1684956;84;26469;-79
2021/12/18 11:01:13;;;;;;;41.50;25.80;;;;;;;2.78;95.98;101941.44;1684676;84;28527;-78
2021/12/18 11:03:50;;;;;;;40.52;20.88;;;;;;;2.77;96.02;101936.61;1684872;85;25839;-79
2021/12/18 11:06:24;;;;;;;46.85;25.17;;;;;;;2.76;96.05;101920.35;1685022;84;25769;-79
2021/12/18 11:09:10;;;;;;;40.35;22.98;;;;;;;2.78;96.10;101921.59;1680026;84;26419;-79
2021/12/18 11:14:41;;;;;;;36.50;22.50;;;;;;;2.75;96.19;101923.11;1644729;85;27566;-79
2021/12/18 11:17:12;;;;;;;50.23;23.95;;;;;;;2.73;96.44;101915.28;1653089;85;25965;-78
2021/12/18 11:19:40;;;;;;;43.28;22.93;;;;;;;2.72;96.40;101904.79;1636387;87;25759;-78
2021/12/18 11:22:14;;;;;;;48.05;24.10;;;;;;;2.72;96.55;101900.81;1635871;86;25896;-80
2021/12/18 11:24:49;;;;;;;43.10;22.70;;;;;;;2.72;96.62;101908.29;1635978;87;26041;-78
2021/12/18 11:27:19;;;;;;;41.05;19.02;;;;;;;2.73;96.67;101911.79;1636340;87;27503;-79
2021/12/18 11:29:56;;;;;;;44.67;23.13;;;;;;;2.72;96.69;101903.00;1635829;87;26039;-79
2021/12/18 11:32:33;;;;;;;44.53;21.87;;;;;;;2.71;96.81;101893.38;1635444;87;25897;-79
2021/12/18 11:35:04;;;;;;;39.90;22.93;;;;;;;2.72;96.72;101900.35;1634020;87;26639;-79
2021/12/18 11:37:41;;;;;;;44.48;21.97;;;;;;;2.74;96.79;101902.41;1637013;85;25920;-79
2021/12/18 11:40:11;;;;;;;45.65;22.85;;;;;;;2.75;96.75;101892.69;1653073;85;27526;-79
2021/12/18 11:42:38;;;;;;;40.35;20.45;;;;;;;2.78;96.78;101893.81;1634974;86;26364;-78
2021/12/18 11:45:07;;;;;;;43.05;22.00;;;;;;;2.77;96.83;101892.95;1636600;87;26601;-79
2021/12/18 11:47:39;;;;;;;42.93;20.25;;;;;;;2.76;96.69;101899.19;1636385;87;25794;-79
2021/12/18 11:50:28;;;;;;;44.90;22.73;;;;;;;2.79;96.63;101919.30;1636224;87;25806;-79
2021/12/18 11:53:16;;;;;;;39.88;21.07;;;;;;;2.81;96.56;101912.10;1636165;87;27482;-79
2021/12/18 11:55:54;;;;;;;39.00;18.52;;;;;;;2.83;96.49;101906.23;1636021;87;25870;-80
2021/12/18 11:58:28;;;;;;;30.52;13.70;;;;;;;2.83;96.44;101894.32;1633306;87;25934;-79
2021/12/18 12:01:05;;;;;;;32.75;14.45;;;;;;;2.85;96.50;101887.98;1636156;87;25804;-78
2021/12/18 12:03:43;;;;;;;32.42;17.05;;;;;;;2.85;96.39;101884.01;1636958;86;26507;-79
2021/12/18 12:06:32;;;;;;;32.03;17.35;;;;;;;2.85;96.57;101872.57;1637371;86;27560;-78
2021/12/18 12:09:29;;;;;;;;;;;;;;;2.88;96.55;101869.25;1639929;87;25790;-78
2021/12/18 12:12:01;;;;;;;33.88;19.37;;;;;;;2.88;96.29;101861.31;1636333;87;25660;-77
2021/12/18 12:14:34;;;;;;;28.67;17.80;;;;;;;2.86;96.19;101849.14;1613063;87;25734;-80
2021/12/18 12:17:07;;;;;;;34.90;18.17;;;;;;;2.83;96.20;101834.78;1619131;87;25936;-79